Time;durP1;ratioP1;P1;durP2;ratioP2;P2;SDS_P1;SDS_P2;PMS_P1;PMS_P2;Temp;Humidity;BMP_temperature;BMP_pressure;BME280_temperature;BME280_humidity;BME280_pressure;Samples;Min_cycle;Max_cycle;Signal;HPM_P1;HPM_P2
2021/10/11 00:00:35;;;;;;;1.30;1.00;;;5.60;99.90;;;;;;5072790;28;20184;-72
2021/10/11 00:03:03;;;;;;;1.33;0.82;;;5.60;99.90;;;;;;5072578;28;20222;-72
2021/10/11 00:05:31;;;;;;;1.33;0.90;;;5.50;99.90;;;;;;5072771;28;20188;-72
2021/10/11 00:08:00;;;;;;;1.33;0.95;;;5.60;99.90;;;;;;5073538;28;20211;-72
2021/10/11 00:10:29;;;;;;;1.27;1.17;;;5.60;99.90;;;;;;5074820;28;20180;-72
2021/10/11 00:12:57;;;;;;;2.17;1.02;;;5.60;99.90;;;;;;5077630;28;20211;-73
2021/10/11 00:15:27;;;;;;;2.10;1.63;;;5.60;99.90;;;;;;5079362;28;20724;-72
2021/10/11 00:17:56;;;;;;;2.00;1.50;;;5.60;99.90;;;;;;5077309;28;20176;-71
2021/10/11 00:20:25;;;;;;;1.30;1.20;;;5.50;99.90;;;;;;5076888;28;20279;-71
2021/10/11 00:22:53;;;;;;;1.35;1.25;;;5.40;99.90;;;;;;5078891;28;20581;-73
2021/10/11 00:25:21;;;;;;;1.42;1.30;;;5.40;99.90;;;;;;5079203;28;20654;-72
2021/10/11 00:27:50;;;;;;;1.23;0.95;;;5.40;99.90;;;;;;5077338;28;20274;-72
2021/10/11 00:30:18;;;;;;;1.08;0.95;;;5.40;99.90;;;;;;5079519;28;20191;-72
2021/10/11 00:32:47;;;;;;;1.00;0.80;;;5.30;99.90;;;;;;5077988;28;20211;-72
2021/10/11 00:35:16;;;;;;;1.95;1.33;;;5.30;99.90;;;;;;5078163;28;20350;-72
2021/10/11 00:37:44;;;;;;;3.40;1.35;;;5.20;99.90;;;;;;5076300;28;20177;-72
2021/10/11 00:40:13;;;;;;;4.78;1.45;;;5.20;99.90;;;;;;5076142;28;20195;-71
2021/10/11 00:42:41;;;;;;;2.60;2.50;;;5.20;99.90;;;;;;5075320;28;20207;-71
2021/10/11 00:45:10;;;;;;;1.50;1.35;;;5.20;99.90;;;;;;5075832;28;20188;-71
2021/10/11 00:47:39;;;;;;;2.25;1.33;;;5.20;99.90;;;;;;5076406;28;20210;-72
2021/10/11 00:50:08;;;;;;;1.30;0.98;;;5.20;99.90;;;;;;5077255;28;20208;-71
2021/10/11 00:52:36;;;;;;;0.90;0.70;;;5.20;99.90;;;;;;5076880;28;20216;-73
2021/10/11 00:55:05;;;;;;;1.10;0.73;;;5.20;99.90;;;;;;5075202;28;20545;-72
2021/10/11 00:57:33;;;;;;;1.60;0.70;;;5.20;99.90;;;;;;5075117;28;20188;-72
2021/10/11 01:00:01;;;;;;;1.25;1.08;;;5.20;99.90;;;;;;5075122;28;20184;-71
2021/10/11 01:02:31;;;;;;;1.15;1.05;;;5.20;99.90;;;;;;5075042;28;20239;-70
2021/10/11 01:04:59;;;;;;;5.10;1.80;;;5.30;99.90;;;;;;5076885;28;20188;-73
2021/10/11 01:07:27;;;;;;;2.85;0.70;;;5.30;99.90;;;;;;5076089;28;20239;-72
2021/10/11 01:09:55;;;;;;;1.02;0.60;;;5.20;99.90;;;;;;5075813;28;20560;-73
2021/10/11 01:12:23;;;;;;;1.55;1.45;;;5.30;99.90;;;;;;5075700;28;20295;-72
2021/10/11 01:14:51;;;;;;;4.68;4.28;;;5.30;99.90;;;;;;5075592;28;20239;-72
2021/10/11 01:17:19;;;;;;;1.65;0.90;;;5.30;99.90;;;;;;5075047;28;20184;-71
2021/10/11 01:19:51;;;;;;;0.90;0.70;;;5.30;99.90;;;;;;5074766;28;20192;-71
2021/10/11 01:22:20;;;;;;;2.63;1.52;;;5.30;99.90;;;;;;5074582;28;20219;-72
2021/10/11 01:24:48;;;;;;;0.90;0.60;;;5.20;99.90;;;;;;5073823;28;20666;-73
2021/10/11 01:27:16;;;;;;;1.65;0.95;;;5.30;99.90;;;;;;5074847;28;20219;-73
2021/10/11 01:29:44;;;;;;;1.20;1.08;;;5.30;99.90;;;;;;5074676;28;20583;-72
2021/10/11 01:32:12;;;;;;;1.27;1.08;;;5.30;99.90;;;;;;5074424;28;20254;-73
2021/10/11 01:34:40;;;;;;;1.20;0.70;;;5.50;99.90;;;;;;5074469;28;20188;-73
2021/10/11 01:37:08;;;;;;;8.73;1.55;;;5.50;99.90;;;;;;5074544;28;20172;-73
2021/10/11 01:39:38;;;;;;;1.00;0.80;;;5.50;99.90;;;;;;5074332;28;20188;-74
2021/10/11 01:42:06;;;;;;;2.08;1.73;;;5.60;99.90;;;;;;5072936;28;20211;-71
2021/10/11 01:44:35;;;;;;;1.42;1.00;;;5.60;99.90;;;;;;5074245;28;20210;-71
2021/10/11 01:47:03;;;;;;;5.22;2.65;;;5.60;99.90;;;;;;5074278;28;20623;-71
2021/10/11 01:49:31;;;;;;;1.00;0.85;;;5.60;99.90;;;;;;5074375;28;20192;-71
2021/10/11 01:52:00;;;;;;;1.08;0.65;;;5.50;99.90;;;;;;5073980;28;20192;-71
2021/10/11 01:54:28;;;;;;;1.48;1.33;;;5.60;99.90;;;;;;5087163;22;20271;-76
2021/10/11 01:56:58;;;;;;;2.20;1.80;;;5.70;99.90;;;;;;5073917;28;20188;-76
2021/10/11 01:59:26;;;;;;;1.42;0.88;;;5.70;99.90;;;;;;5074157;28;20184;-76
2021/10/11 02:01:54;;;;;;;2.40;1.73;;;5.80;99.90;;;;;;5074025;28;20172;-76
2021/10/11 02:04:22;;;;;;;2.45;0.93;;;5.90;99.90;;;;;;5073922;28;20613;-75
2021/10/11 02:06:50;;;;;;;1.63;1.35;;;6.00;99.90;;;;;;5073840;28;20250;-75
2021/10/11 02:09:19;;;;;;;3.20;1.60;;;6.10;99.90;;;;;;5072581;28;20242;-76
2021/10/11 02:11:48;;;;;;;1.83;0.93;;;6.20;99.90;;;;;;5072492;28;20188;-74
2021/10/11 02:14:18;;;;;;;3.20;2.13;;;6.20;99.90;;;;;;5073781;28;20211;-76
2021/10/11 02:16:46;;;;;;;0.80;0.50;;;6.20;99.90;;;;;;5073387;28;20249;-75
2021/10/11 02:19:14;;;;;;;0.90;0.80;;;6.20;99.90;;;;;;5074102;28;20649;-76
2021/10/11 02:21:42;;;;;;;6.78;1.63;;;6.30;99.90;;;;;;5074383;28;20191;-76
2021/10/11 02:24:10;;;;;;;2.17;0.90;;;6.30;99.90;;;;;;5073915;28;20223;-76
2021/10/11 02:26:38;;;;;;;1.55;1.23;;;6.30;99.90;;;;;;5074070;28;20238;-76
2021/10/11 02:29:07;;;;;;;3.35;1.63;;;6.30;99.90;;;;;;5072966;28;20307;-77
2021/10/11 02:31:37;;;;;;;1.40;0.95;;;6.30;99.90;;;;;;5072947;28;20196;-76
2021/10/11 02:34:05;;;;;;;1.30;1.20;;;6.40;99.90;;;;;;5073954;28;20204;-77
2021/10/11 02:36:33;;;;;;;1.58;0.95;;;6.60;99.90;;;;;;5073167;28;20699;-77
2021/10/11 02:39:02;;;;;;;0.93;0.77;;;6.60;99.90;;;;;;5073969;28;20706;-77
2021/10/11 02:41:30;;;;;;;2.08;1.35;;;6.50;99.90;;;;;;5074342;28;20188;-77
2021/10/11 02:43:58;;;;;;;2.55;1.55;;;6.40;99.90;;;;;;5074083;28;20246;-77
2021/10/11 02:46:26;;;;;;;6.15;1.48;;;6.50;99.90;;;;;;5073949;28;20192;-77
2021/10/11 02:48:56;;;;;;;1.23;1.13;;;6.60;99.90;;;;;;5074206;28;20283;-77
2021/10/11 02:51:24;;;;;;;1.55;1.35;;;6.60;99.90;;;;;;5074290;28;20184;-76
2021/10/11 02:53:52;;;;;;;4.18;1.83;;;6.70;99.90;;;;;;5073838;28;20693;-76
2021/10/11 02:56:20;;;;;;;0.90;0.50;;;6.60;99.90;;;;;;5073065;28;20196;-76
2021/10/11 02:58:48;;;;;;;0.98;0.85;;;6.60;99.90;;;;;;5074172;28;20226;-76
2021/10/11 03:01:16;;;;;;;1.20;1.10;;;6.60;99.90;;;;;;5074750;28;20234;-76
2021/10/11 03:03:44;;;;;;;1.65;1.00;;;6.60;99.90;;;;;;5087550;28;20721;-76
2021/10/11 03:06:15;;;;;;;1.95;0.88;;;6.60;99.90;;;;;;5096334;28;20176;-77
2021/10/11 03:08:43;;;;;;;1.25;1.13;;;6.60;99.90;;;;;;5097113;28;20182;-76
2021/10/11 03:11:11;;;;;;;4.40;0.95;;;6.60;99.90;;;;;;5096882;28;20203;-77
2021/10/11 03:13:39;;;;;;;2.20;1.77;;;6.70;99.90;;;;;;5097071;28;20192;-77
2021/10/11 03:16:07;;;;;;;6.90;3.30;;;6.80;99.90;;;;;;5089433;28;20199;-76
2021/10/11 03:18:35;;;;;;;0.90;0.70;;;6.80;99.90;;;;;;5073892;28;20169;-78
2021/10/11 03:21:03;;;;;;;1.98;0.77;;;6.70;99.90;;;;;;5072343;28;20199;-76
2021/10/11 03:23:32;;;;;;;1.23;0.90;;;6.70;99.90;;;;;;5073432;28;20208;-77
2021/10/11 03:26:00;;;;;;;1.25;1.15;;;6.70;99.90;;;;;;5072282;28;20188;-76
2021/10/11 03:28:29;;;;;;;4.88;2.67;;;6.70;99.90;;;;;;5073408;28;20229;-76
2021/10/11 03:30:57;;;;;;;1.27;0.93;;;6.80;99.90;;;;;;5073135;28;20212;-76
2021/10/11 03:33:25;;;;;;;1.65;0.70;;;6.80;99.90;;;;;;5072278;28;20211;-74
2021/10/11 03:35:53;;;;;;;3.53;0.98;;;6.70;99.90;;;;;;5072724;28;20184;-74
2021/10/11 03:38:21;;;;;;;1.77;1.67;;;6.70;99.90;;;;;;5072484;28;20685;-74
2021/10/11 03:40:51;;;;;;;1.35;0.70;;;6.70;99.90;;;;;;5072571;28;20188;-74
2021/10/11 03:43:19;;;;;;;1.90;1.50;;;6.70;99.90;;;;;;5072417;28;20238;-74
2021/10/11 03:45:51;;;;;;;1.35;1.00;;;6.70;99.90;;;;;;5072368;28;20180;-74
2021/10/11 03:48:19;;;;;;;1.15;1.02;;;6.70;99.90;;;;;;5071876;28;20200;-74
2021/10/11 03:50:47;;;;;;;1.20;1.00;;;6.70;99.90;;;;;;5072730;28;20757;-74
2021/10/11 03:53:16;;;;;;;1.30;0.90;;;6.80;99.90;;;;;;5071974;28;20643;-74
2021/10/11 03:55:45;;;;;;;1.40;0.80;;;6.90;99.90;;;;;;5072183;28;20600;-74
2021/10/11 03:58:16;;;;;;;1.83;1.73;;;6.90;99.90;;;;;;5072445;28;20686;-74
2021/10/11 04:00:44;;;;;;;1.20;0.60;;;6.80;99.90;;;;;;5072055;28;20176;-75
2021/10/11 04:03:12;;;;;;;2.45;2.25;;;6.80;99.90;;;;;;5070701;28;20215;-73
2021/10/11 04:05:40;;;;;;;1.65;1.00;;;6.70;99.90;;;;;;5072042;28;20184;-74
2021/10/11 04:08:12;;;;;;;1.10;0.82;;;6.70;99.90;;;;;;5071810;28;20184;-73
2021/10/11 04:10:47;;;;;;;2.00;1.88;;;6.70;99.90;;;;;;5069783;28;20184;-75
2021/10/11 04:13:20;;;;;;;2.03;1.05;;;6.80;99.90;;;;;;5062181;28;20214;-74
2021/10/11 04:15:49;;;;;;;0.90;0.60;;;6.70;99.90;;;;;;5065926;28;20651;-75
2021/10/11 04:18:17;;;;;;;1.83;0.90;;;6.80;99.90;;;;;;5062778;28;20189;-74
2021/10/11 04:20:47;;;;;;;1.27;0.70;;;6.70;99.90;;;;;;5052009;28;20647;-73
2021/10/11 04:23:16;;;;;;;0.95;0.85;;;6.70;99.90;;;;;;5054153;28;20227;-75
2021/10/11 04:25:44;;;;;;;1.33;1.23;;;6.70;99.90;;;;;;5071674;28;20196;-73
2021/10/11 04:28:14;;;;;;;0.90;0.70;;;6.60;99.90;;;;;;5065043;28;20188;-73
2021/10/11 04:30:44;;;;;;;4.05;2.10;;;6.60;99.90;;;;;;5050388;28;20189;-75
2021/10/11 04:33:13;;;;;;;3.28;1.67;;;6.60;99.90;;;;;;5057604;28;20242;-74
2021/10/11 04:35:42;;;;;;;0.90;0.65;;;6.70;99.90;;;;;;5071477;28;20195;-74
2021/10/11 04:38:10;;;;;;;1.60;1.50;;;6.80;99.90;;;;;;5071938;28;20679;-74
2021/10/11 04:40:39;;;;;;;1.30;0.82;;;6.90;99.90;;;;;;5071509;28;20194;-75
2021/10/11 04:43:07;;;;;;;2.80;2.65;;;6.90;99.90;;;;;;5071532;28;20208;-75
2021/10/11 04:45:35;;;;;;;1.80;1.70;;;6.80;99.90;;;;;;5071502;28;20527;-74
2021/10/11 04:48:07;;;;;;;2.15;1.13;;;6.80;99.90;;;;;;5071642;28;20681;-73
2021/10/11 04:50:36;;;;;;;1.95;0.98;;;6.70;99.90;;;;;;5071277;28;20216;-73
2021/10/11 04:53:05;;;;;;;2.00;0.90;;;6.70;99.90;;;;;;5056539;28;20272;-75
2021/10/11 04:55:34;;;;;;;2.03;1.25;;;6.60;99.90;;;;;;5053043;28;20173;-74
2021/10/11 04:58:02;;;;;;;2.65;1.23;;;6.60;99.90;;;;;;5070403;28;20211;-74
2021/10/11 05:00:31;;;;;;;1.20;1.10;;;6.60;99.90;;;;;;5054275;28;20187;-75
2021/10/11 05:02:59;;;;;;;1.70;1.05;;;6.70;99.90;;;;;;5055610;28;20239;-75
2021/10/11 05:05:32;;;;;;;0.95;0.70;;;6.70;99.90;;;;;;5055426;28;20181;-75
2021/10/11 05:08:00;;;;;;;0.90;0.60;;;6.60;99.90;;;;;;5055229;28;20177;-76
2021/10/11 05:10:29;;;;;;;0.90;0.60;;;6.50;99.90;;;;;;5055608;28;20223;-74
2021/10/11 05:12:57;;;;;;;0.90;0.73;;;6.60;99.90;;;;;;5053983;28;20586;-75
2021/10/11 05:15:25;;;;;;;1.65;1.38;;;6.60;99.90;;;;;;5054801;28;20239;-72
2021/10/11 05:17:53;;;;;;;1.10;1.00;;;6.60;99.90;;;;;;5055070;28;20189;-75
2021/10/11 05:20:21;;;;;;;1.10;0.80;;;6.60;99.90;;;;;;5054611;28;20180;-73
2021/10/11 05:22:50;;;;;;;2.95;1.00;;;6.60;99.90;;;;;;5054595;28;20177;-73
2021/10/11 05:25:23;;;;;;;1.23;0.70;;;6.80;99.90;;;;;;5053416;28;20197;-73
2021/10/11 05:27:51;;;;;;;2.13;1.05;;;6.70;99.90;;;;;;5054568;28;20258;-73
2021/10/11 05:30:19;;;;;;;1.15;0.98;;;6.60;99.90;;;;;;5054420;28;20216;-73
2021/10/11 05:32:48;;;;;;;1.10;0.75;;;6.70;99.90;;;;;;5054415;28;20180;-75
2021/10/11 05:35:17;;;;;;;1.40;1.30;;;6.70;99.90;;;;;;5054440;28;20523;-75
2021/10/11 05:37:45;;;;;;;1.30;0.88;;;6.70;99.90;;;;;;5054571;28;20187;-74
2021/10/11 05:40:14;;;;;;;4.90;1.20;;;6.70;99.90;;;;;;5054942;28;20185;-74
2021/10/11 05:42:42;;;;;;;1.73;1.25;;;6.70;99.90;;;;;;5054309;28;20239;-74
2021/10/11 05:45:11;;;;;;;1.00;0.88;;;6.60;99.90;;;;;;5054428;28;20211;-75
2021/10/11 05:47:39;;;;;;;1.85;0.85;;;6.70;99.90;;;;;;5054307;28;20204;-74
2021/10/11 05:50:09;;;;;;;1.38;1.27;;;6.70;99.90;;;;;;5054447;28;20196;-75
2021/10/11 05:52:37;;;;;;;1.05;0.80;;;6.70;99.90;;;;;;5061341;28;20184;-74
2021/10/11 05:55:08;;;;;;;0.90;0.70;;;6.70;99.90;;;;;;5074498;28;20687;-74
2021/10/11 05:57:37;;;;;;;1.13;1.02;;;6.60;99.90;;;;;;5055396;28;20204;-73
2021/10/11 06:00:06;;;;;;;1.83;1.27;;;6.70;99.90;;;;;;5072143;28;20588;-73
2021/10/11 06:02:34;;;;;;;1.83;1.35;;;6.80;99.90;;;;;;5072672;28;20283;-74
2021/10/11 06:05:03;;;;;;;7.57;2.05;;;6.70;99.90;;;;;;5074300;28;20885;-73
2021/10/11 06:07:31;;;;;;;0.90;0.70;;;6.90;99.90;;;;;;5074033;28;20242;-75
2021/10/11 06:09:59;;;;;;;1.00;0.73;;;7.00;99.90;;;;;;5072862;28;20250;-73
2021/10/11 06:12:27;;;;;;;3.95;2.40;;;7.00;99.90;;;;;;5074557;28;20222;-73
2021/10/11 06:15:00;;;;;;;2.53;2.33;;;7.00;99.90;;;;;;5074136;28;20173;-73
2021/10/11 06:17:29;;;;;;;4.80;1.23;;;7.00;99.90;;;;;;5072898;28;20230;-73
2021/10/11 06:19:57;;;;;;;1.95;1.58;;;7.00;99.90;;;;;;5073960;28;20226;-72
2021/10/11 06:22:25;;;;;;;1.92;1.70;;;7.00;99.90;;;;;;5073954;28;20184;-72
2021/10/11 06:24:54;;;;;;;2.08;1.50;;;7.00;99.90;;;;;;5073773;28;20208;-73
2021/10/11 06:27:22;;;;;;;3.50;3.20;;;7.10;99.90;;;;;;5073973;28;20188;-73
2021/10/11 06:29:50;;;;;;;6.45;1.65;;;7.20;99.90;;;;;;5073869;28;20570;-73
2021/10/11 06:32:19;;;;;;;4.03;2.03;;;7.30;99.90;;;;;;5073848;28;20247;-74
2021/10/11 06:34:47;;;;;;;2.85;2.65;;;7.30;99.90;;;;;;5073562;28;20624;-73
2021/10/11 06:37:15;;;;;;;2.53;2.38;;;7.50;99.90;;;;;;5073582;28;20223;-74
2021/10/11 06:39:43;;;;;;;1.42;1.13;;;7.50;99.90;;;;;;5073471;28;20272;-70
2021/10/11 06:42:11;;;;;;;1.45;1.35;;;7.60;99.90;;;;;;5073144;28;20230;-70
2021/10/11 06:44:39;;;;;;;1.27;0.82;;;7.70;99.90;;;;;;5072904;28;20250;-71
2021/10/11 06:47:07;;;;;;;2.65;1.77;;;7.90;99.90;;;;;;5073351;28;20184;-70
2021/10/11 06:49:37;;;;;;;2.13;2.03;;;8.10;99.90;;;;;;5072971;28;20745;-70
2021/10/11 06:52:05;;;;;;;2.10;1.45;;;8.20;99.90;;;;;;5071393;28;20590;-71
2021/10/11 06:54:33;;;;;;;2.65;0.90;;;8.20;99.90;;;;;;5052509;28;20244;-70
2021/10/11 06:57:01;;;;;;;3.85;1.70;;;8.10;99.90;;;;;;5052944;28;20173;-71
2021/10/11 06:59:29;;;;;;;1.45;1.08;;;8.00;99.90;;;;;;5052769;28;20184;-71
2021/10/11 07:01:57;;;;;;;0.90;0.60;;;8.10;99.90;;;;;;5052605;28;20219;-71
2021/10/11 07:04:46;;;;;;;1.40;1.30;;;8.20;99.90;;;;;;5052471;28;20750;-71
2021/10/11 07:07:14;;;;;;;3.55;1.80;;;8.20;99.90;;;;;;5052696;28;20181;-71
2021/10/11 07:09:42;;;;;;;0.90;0.70;;;8.20;99.90;;;;;;5053093;28;20185;-71
2021/10/11 07:12:10;;;;;;;1.45;1.35;;;8.30;99.90;;;;;;5069799;28;20200;-71
2021/10/11 07:14:38;;;;;;;1.70;1.60;;;8.30;99.90;;;;;;5059909;28;20212;-71
2021/10/11 07:17:06;;;;;;;2.20;1.42;;;8.40;99.90;;;;;;5052984;28;20706;-71
2021/10/11 07:19:34;;;;;;;1.10;0.90;;;8.50;99.90;;;;;;5052879;28;20192;-72
2021/10/11 07:22:04;;;;;;;3.22;1.70;;;8.60;99.90;;;;;;5052026;28;20219;-71
2021/10/11 07:24:32;;;;;;;1.00;0.88;;;8.70;99.90;;;;;;5052858;28;20224;-70
2021/10/11 07:27:00;;;;;;;1.20;0.63;;;8.70;99.90;;;;;;5052658;28;20196;-71
2021/10/11 07:29:28;;;;;;;3.53;1.92;;;8.80;99.90;;;;;;5052798;28;20181;-72
2021/10/11 07:31:56;;;;;;;2.70;2.50;;;8.80;99.90;;;;;;5057347;28;20215;-71
2021/10/11 07:34:25;;;;;;;1.15;0.70;;;8.90;99.90;;;;;;5069062;28;20291;-70
2021/10/11 07:36:53;;;;;;;3.25;1.90;;;9.00;99.90;;;;;;5072280;28;20572;-70
2021/10/11 07:39:22;;;;;;;1.00;0.70;;;8.90;99.90;;;;;;5072844;28;20720;-72
2021/10/11 07:41:50;;;;;;;3.35;3.03;;;8.80;99.90;;;;;;5064959;28;20559;-72
2021/10/11 07:44:18;;;;;;;1.48;1.38;;;8.80;99.90;;;;;;5068073;28;20243;-72
2021/10/11 07:46:51;;;;;;;1.80;1.52;;;8.90;99.90;;;;;;5058016;28;20671;-71
2021/10/11 07:49:30;;;;;;;3.25;3.05;;;8.80;99.90;;;;;;5062860;28;20647;-72
2021/10/11 07:51:58;;;;;;;2.40;2.08;;;8.90;99.90;;;;;;5066634;28;20214;-71
2021/10/11 07:54:28;;;;;;;1.70;1.23;;;8.90;99.90;;;;;;5060233;28;20636;-71
2021/10/11 07:56:58;;;;;;;2.35;1.55;;;8.90;99.90;;;;;;5056866;28;20494;-71
2021/10/11 07:59:28;;;;;;;1.50;0.85;;;8.90;99.90;;;;;;5055072;28;20275;-71
2021/10/11 08:01:56;;;;;;;1.70;1.60;;;9.00;99.90;;;;;;5054352;28;20181;-71
2021/10/11 08:04:25;;;;;;;3.25;2.97;;;8.90;99.90;;;;;;5051825;28;20204;-71
2021/10/11 08:06:53;;;;;;;2.33;2.00;;;9.00;99.90;;;;;;5051977;28;20674;-70
2021/10/11 08:09:21;;;;;;;3.10;2.90;;;9.20;99.90;;;;;;5064824;28;20246;-71
2021/10/11 08:11:51;;;;;;;2.30;2.20;;;9.20;99.90;;;;;;5067965;28;20244;-71
2021/10/11 08:14:19;;;;;;;4.03;2.92;;;9.00;99.90;;;;;;5068636;28;20783;-71
2021/10/11 08:16:47;;;;;;;3.30;2.10;;;9.00;99.90;;;;;;5072015;28;20568;-70
2021/10/11 08:19:15;;;;;;;1.77;1.60;;;9.00;99.90;;;;;;5070245;28;20191;-70
2021/10/11 08:21:43;;;;;;;3.75;1.55;;;8.90;99.90;;;;;;5070386;28;20192;-71
2021/10/11 08:24:12;;;;;;;1.67;1.27;;;8.80;99.90;;;;;;5071434;28;20215;-71
2021/10/11 08:26:40;;;;;;;1.92;1.73;;;8.90;99.90;;;;;;5071232;28;20195;-71
2021/10/11 08:29:09;;;;;;;3.72;1.80;;;8.90;99.90;;;;;;5071371;28;20212;-72
2021/10/11 08:31:38;;;;;;;9.50;3.10;;;8.90;99.90;;;;;;5071587;28;20705;-70
2021/10/11 08:34:06;;;;;;;1.30;1.20;;;9.10;99.90;;;;;;5073583;28;20208;-70
2021/10/11 08:36:34;;;;;;;3.38;2.13;;;9.20;99.90;;;;;;5075760;28;20184;-70
2021/10/11 08:39:03;;;;;;;7.25;2.05;;;9.40;99.90;;;;;;5076136;28;20215;-72
2021/10/11 08:41:31;;;;;;;4.35;2.00;;;9.60;99.90;;;;;;5077168;28;20184;-75
2021/10/11 08:43:59;;;;;;;2.17;1.58;;;9.70;99.90;;;;;;5058046;28;20223;-75
2021/10/11 08:46:29;;;;;;;2.67;2.47;;;9.80;99.90;;;;;;5055532;28;20243;-75
2021/10/11 08:48:58;;;;;;;1.25;1.13;;;9.80;99.90;;;;;;5053986;28;20196;-76
2021/10/11 08:51:26;;;;;;;2.28;1.63;;;9.70;99.90;;;;;;5055836;28;20216;-75
2021/10/11 08:53:54;;;;;;;2.65;1.63;;;9.60;99.90;;;;;;5065070;28;20226;-77
2021/10/11 08:56:22;;;;;;;1.27;1.17;;;9.50;99.90;;;;;;5075394;28;20176;-75
2021/10/11 08:58:51;;;;;;;2.35;2.05;;;9.70;99.90;;;;;;5055968;28;20188;-75
2021/10/11 09:01:23;;;;;;;5.73;3.07;;;9.60;99.90;;;;;;5053798;28;20215;-75
2021/10/11 09:03:53;;;;;;;2.47;2.38;;;9.50;99.90;;;;;;5055147;28;20435;-76
2021/10/11 09:06:21;;;;;;;2.03;0.95;;;9.40;99.90;;;;;;5055237;28;20193;-76
2021/10/11 09:08:49;;;;;;;3.65;2.70;;;9.50;99.90;;;;;;5055139;28;20189;-77
2021/10/11 09:11:18;;;;;;;3.38;3.05;;;9.60;99.90;;;;;;5064414;28;20204;-75
2021/10/11 09:13:52;;;;;;;3.35;1.17;;;9.90;99.90;;;;;;5069556;28;20224;-76
2021/10/11 09:16:29;;;;;;;4.63;3.50;;;10.00;99.90;;;;;;5056277;28;20173;-77
2021/10/11 09:19:10;;;;;;;1.98;1.77;;;10.00;99.90;;;;;;5062510;28;20183;-77
2021/10/11 09:21:38;;;;;;;2.03;1.80;;;10.20;99.90;;;;;;5065829;28;20188;-78
2021/10/11 09:24:08;;;;;;;1.07;0.93;;;10.40;99.90;;;;;;5076276;28;20446;-79
2021/10/11 09:26:44;;;;;;;1.73;1.60;;;10.40;99.90;;;;;;5073694;28;20912;-77
2021/10/11 09:29:13;;;;;;;2.50;1.40;;;10.20;99.90;;;;;;5073550;28;20192;-76
2021/10/11 09:31:45;;;;;;;2.40;1.48;;;10.20;99.90;;;;;;5071930;28;20462;-76
2021/10/11 09:34:18;;;;;;;2.33;2.23;;;10.30;99.90;;;;;;5063752;28;20223;-76
2021/10/11 09:36:56;;;;;;;5.35;3.78;;;10.50;99.90;;;;;;5073796;28;20423;-76
2021/10/11 09:39:24;;;;;;;2.37;1.93;;;10.70;99.90;;;;;;5055044;28;20212;-73
2021/10/11 09:41:53;;;;;;;2.63;2.50;;;10.70;99.90;;;;;;5054704;28;20424;-73
2021/10/11 09:44:22;;;;;;;1.17;1.07;;;11.00;99.90;;;;;;5064859;28;20844;-73
2021/10/11 09:46:54;;;;;;;6.10;2.37;;;10.80;99.90;;;;;;5056737;28;20420;-72
2021/10/11 09:49:25;;;;;;;1.27;0.80;;;10.70;99.90;;;;;;5054194;28;20481;-71
2021/10/11 09:51:53;;;;;;;5.63;2.17;;;10.80;99.90;;;;;;5054286;28;20568;-73
2021/10/11 09:54:22;;;;;;;2.03;1.50;;;10.90;99.90;;;;;;5064404;28;20533;-71
2021/10/11 09:56:50;;;;;;;2.57;2.37;;;11.00;99.90;;;;;;5074540;28;20430;-71
2021/10/11 09:59:18;;;;;;;3.00;2.37;;;11.20;99.90;;;;;;5074224;28;20509;-71
2021/10/11 10:01:48;;;;;;;2.63;2.43;;;11.40;99.90;;;;;;5062789;28;20936;-73
2021/10/11 10:04:21;;;;;;;3.00;1.43;;;11.40;99.90;;;;;;5054027;28;20447;-70
2021/10/11 10:06:53;;;;;;;1.73;1.50;;;11.60;99.90;;;;;;5054364;28;20929;-73
2021/10/11 10:09:22;;;;;;;2.30;1.77;;;11.70;99.90;;;;;;5054218;28;20503;-72
2021/10/11 10:11:51;;;;;;;3.17;1.80;;;11.80;99.90;;;;;;5066661;28;20539;-72
2021/10/11 10:14:20;;;;;;;3.07;2.83;;;11.90;99.90;;;;;;5065345;28;20481;-72
2021/10/11 10:16:49;;;;;;;2.77;2.57;;;12.20;99.90;;;;;;5074104;28;20410;-73
2021/10/11 10:19:18;;;;;;;2.13;1.60;;;12.30;99.90;;;;;;5064303;28;20773;-71
2021/10/11 10:21:46;;;;;;;6.30;2.17;;;12.30;99.90;;;;;;5061046;28;20426;-73
2021/10/11 10:24:26;;;;;;;1.60;1.40;;;12.30;99.90;;;;;;5069411;28;20501;-70
2021/10/11 10:27:03;;;;;;;2.80;2.03;;;12.30;99.90;;;;;;5053631;28;20430;-73
2021/10/11 10:29:41;;;;;;;3.37;3.10;;;12.30;99.90;;;;;;5071290;28;20422;-71
2021/10/11 10:32:11;;;;;;;1.80;1.10;;;12.40;99.90;;;;;;5061664;28;20471;-71
2021/10/11 10:34:39;;;;;;;1.87;0.83;;;12.40;99.90;;;;;;5053177;28;20958;-72
2021/10/11 10:37:10;;;;;;;2.50;2.30;;;12.40;99.90;;;;;;5053415;28;20434;-71
2021/10/11 10:39:40;;;;;;;2.33;2.13;;;12.50;99.90;;;;;;5053567;28;20415;-72
2021/10/11 10:42:20;;;;;;;1.30;1.20;;;12.60;99.90;;;;;;5051670;28;20429;-71
2021/10/11 10:44:48;;;;;;;1.77;1.50;;;12.70;99.90;;;;;;5063172;28;20835;-73
2021/10/11 10:47:16;;;;;;;3.00;2.73;;;12.80;99.90;;;;;;5073181;28;20441;-70
2021/10/11 10:49:47;;;;;;;3.27;2.10;;;12.80;99.90;;;;;;5072958;28;20434;-73
2021/10/11 10:52:18;;;;;;;2.57;1.97;;;13.00;99.90;;;;;;5070510;28;20465;-71
2021/10/11 10:54:51;;;;;;;2.77;2.57;;;13.10;99.90;;;;;;5052656;28;20497;-71
2021/10/11 10:57:20;;;;;;;1.30;0.80;;;13.10;99.90;;;;;;5051624;28;20427;-73
2021/10/11 10:59:52;;;;;;;2.30;1.73;;;13.10;99.90;;;;;;5053049;28;20416;-71
2021/10/11 11:02:21;;;;;;;2.33;1.90;;;13.00;99.90;;;;;;5052863;28;20760;-72
2021/10/11 11:04:56;;;;;;;1.67;1.47;;;13.20;99.90;;;;;;5052633;28;20443;-71
2021/10/11 11:07:28;;;;;;;14.83;1.60;;;13.40;99.90;;;;;;5052831;28;20447;-71
2021/10/11 11:09:58;;;;;;;1.67;1.27;;;13.60;99.90;;;;;;5052849;28;20415;-72
2021/10/11 11:12:32;;;;;;;1.77;1.33;;;13.80;99.90;;;;;;5052386;28;20469;-72
2021/10/11 11:15:01;;;;;;;1.40;1.20;;;14.10;99.90;;;;;;5067847;28;20426;-72
2021/10/11 11:17:31;;;;;;;2.00;1.30;;;14.40;99.90;;;;;;5072418;28;20432;-72
2021/10/11 11:20:00;;;;;;;1.20;1.10;;;14.60;99.90;;;;;;5072367;28;20814;-71
2021/10/11 11:22:30;;;;;;;1.87;0.87;;;14.90;99.90;;;;;;5072659;28;20429;-71
2021/10/11 11:25:02;;;;;;;1.53;1.43;;;15.10;99.90;;;;;;5072194;28;20771;-72
2021/10/11 11:27:31;;;;;;;2.07;1.37;;;15.60;99.90;;;;;;5072196;28;20477;-71
2021/10/11 11:30:01;;;;;;;1.30;1.07;;;16.10;99.90;;;;;;5072237;28;20437;-70
2021/10/11 11:32:29;;;;;;;2.40;2.03;;;16.10;99.90;;;;;;5072762;28;20523;-73
2021/10/11 11:34:57;;;;;;;2.87;1.70;;;16.10;99.90;;;;;;5059394;28;20455;-72
2021/10/11 11:37:25;;;;;;;1.50;1.27;;;16.00;99.90;;;;;;5052203;28;20466;-72
2021/10/11 11:39:53;;;;;;;1.80;1.40;;;16.10;99.90;;;;;;5052557;28;20398;-72
2021/10/11 11:42:31;;;;;;;2.17;1.97;;;16.20;99.90;;;;;;5050795;28;20493;-71
2021/10/11 11:44:59;;;;;;;2.63;2.37;;;16.50;99.90;;;;;;5052168;28;20752;-72
2021/10/11 11:47:29;;;;;;;2.57;1.70;;;16.60;99.90;;;;;;5052005;28;20489;-73
2021/10/11 11:49:57;;;;;;;3.27;2.53;;;16.10;99.90;;;;;;5052024;28;20418;-70
2021/10/11 11:52:33;;;;;;;2.70;1.67;;;15.60;99.90;;;;;;5050382;28;20532;-70
2021/10/11 11:55:01;;;;;;;1.07;0.80;;;15.10;99.90;;;;;;5051724;28;20523;-71
2021/10/11 11:57:42;;;;;;;1.07;0.77;;;14.60;99.90;;;;;;5052036;28;20401;-72
2021/10/11 12:00:13;;;;;;;0.90;0.50;;;14.50;99.90;;;;;;5054815;28;20506;-72
2021/10/11 12:02:44;;;;;;;1.00;0.80;;;14.40;99.90;;;;;;5060843;28;20408;-70
2021/10/11 12:05:16;;;;;;;1.87;1.20;;;14.30;99.90;;;;;;5059555;28;20440;-71
2021/10/11 12:07:46;;;;;;;1.20;0.70;;;14.40;99.90;;;;;;5065390;28;20932;-72
2021/10/11 12:10:20;;;;;;;0.97;0.63;;;14.40;99.90;;;;;;5058583;28;20504;-70
2021/10/11 12:12:57;;;;;;;0.90;0.50;;;14.20;99.90;;;;;;5052591;28;20519;-74
2021/10/11 12:15:25;;;;;;;1.10;0.80;;;14.20;99.90;;;;;;5059127;28;20411;-72
2021/10/11 12:18:03;;;;;;;1.00;0.73;;;14.20;99.90;;;;;;5077235;28;20437;-74
2021/10/11 12:20:45;;;;;;;1.43;1.00;;;14.50;99.90;;;;;;5062024;28;20425;-72
2021/10/11 12:23:15;;;;;;;1.30;1.10;;;14.40;99.90;;;;;;5057284;28;20778;-72
2021/10/11 12:25:44;;;;;;;1.40;1.00;;;14.30;99.90;;;;;;5068744;28;20435;-73
2021/10/11 12:28:16;;;;;;;1.00;0.80;;;14.20;99.90;;;;;;5068289;28;20430;-73
2021/10/11 12:30:47;;;;;;;1.10;1.00;;;14.30;99.90;;;;;;5056099;28;20757;-71
2021/10/11 12:33:17;;;;;;;1.00;0.80;;;14.60;99.90;;;;;;5051428;28;20525;-71
2021/10/11 12:35:47;;;;;;;1.57;1.40;;;14.50;99.90;;;;;;5051901;28;20419;-73
2021/10/11 12:38:16;;;;;;;1.67;1.10;;;14.40;99.90;;;;;;5050265;28;20458;-72
2021/10/11 12:40:45;;;;;;;4.23;3.10;;;14.70;99.90;;;;;;5051234;28;20470;-73
2021/10/11 12:43:20;;;;;;;1.77;1.23;;;15.00;99.90;;;;;;5060774;28;20489;-70
2021/10/11 12:46:01;;;;;;;2.00;0.90;;;15.20;99.90;;;;;;5051135;28;20450;-70
2021/10/11 12:48:30;;;;;;;1.10;0.70;;;15.40;99.90;;;;;;5051722;28;20949;-73
2021/10/11 12:50:58;;;;;;;1.20;0.90;;;15.20;99.90;;;;;;5050979;28;20483;-74
2021/10/11 12:53:29;;;;;;;1.67;1.33;;;14.70;99.90;;;;;;5052370;28;20528;-72
2021/10/11 12:55:58;;;;;;;1.00;0.70;;;14.50;99.90;;;;;;5058196;28;20431;-73
2021/10/11 12:58:29;;;;;;;11.90;1.80;;;14.10;99.90;;;;;;5051331;28;20924;-74
2021/10/11 13:00:57;;;;;;;1.47;0.90;;;13.90;99.90;;;;;;5051230;28;20427;-73
2021/10/11 13:03:25;;;;;;;1.40;0.83;;;13.80;99.90;;;;;;5051152;28;20443;-73